Time;durP1;ratioP1;P1;durP2;ratioP2;P2;SDS_P1;SDS_P2;PMS_P1;PMS_P2;Temp;Humidity;BMP_temperature;BMP_pressure;BME280_temperature;BME280_humidity;BME280_pressure;Samples;Min_cycle;Max_cycle;Signal;HPM_P1;HPM_P2
2022/04/22 00:00:54;;;;;;;10.50;9.60;;;;;;;11.10;49.06;94076.19;4990064;28;20049;-72
2022/04/22 00:03:19;;;;;;;11.05;10.05;;;;;;;11.34;48.42;94099.41;4990046;28;20125;-72
2022/04/22 00:05:45;;;;;;;11.75;10.75;;;;;;;11.25;48.88;94093.41;4972406;28;20093;-73
2022/04/22 00:08:10;;;;;;;11.02;10.13;;;;;;;11.09;49.07;94072.00;4971108;28;20026;-72
2022/04/22 00:11:28;;;;;;;11.30;10.30;;;;;;;10.43;49.92;93972.97;4971871;28;20081;-72
2022/04/22 00:13:21;;;;;;;10.70;9.80;;;;;;;11.62;48.31;94106.72;4972136;28;20494;-72
2022/04/22 00:15:46;;;;;;;12.07;10.95;;;;;;;11.47;48.41;94086.88;4979317;28;20030;-73
2022/04/22 00:18:11;;;;;;;11.77;10.48;;;;;;;11.27;48.96;94088.53;4990482;28;20480;-72
2022/04/22 00:20:37;;;;;;;11.18;10.18;;;;;;;10.68;49.19;93974.56;4989996;28;20367;-73
2022/04/22 00:23:02;;;;;;;10.90;10.00;;;;;;;11.07;49.92;94052.16;4991663;28;20395;-72
2022/04/22 00:25:27;;;;;;;11.05;9.95;;;;;;;10.91;49.35;94055.47;4990278;28;20034;-72
2022/04/22 00:27:53;;;;;;;10.73;9.82;;;;;;;10.89;49.74;94032.97;4990161;28;20178;-71
2022/04/22 00:30:19;;;;;;;11.82;10.27;;;;;;;11.17;49.18;94059.69;4990832;28;20037;-72
2022/04/22 00:32:44;;;;;;;13.00;10.30;;;;;;;10.40;49.77;93969.91;4990414;28;20589;-72
2022/04/22 00:35:10;;;;;;;10.43;9.63;;;;;;;11.54;48.72;94078.31;4991316;28;20042;-72
2022/04/22 00:37:35;;;;;;;12.45;11.25;;;;;;;11.39;48.66;94064.56;4991536;28;20423;-72
2022/04/22 00:40:01;;;;;;;11.35;10.38;;;;;;;11.35;49.31;94068.22;4989867;28;20360;-73
2022/04/22 00:42:28;;;;;;;12.50;10.73;;;;;;;11.27;49.31;94079.78;4991146;28;20030;-72
2022/04/22 00:44:53;;;;;;;11.43;10.43;;;;;;;11.30;49.81;94069.22;4990158;28;20023;-72
2022/04/22 00:47:19;;;;;;;11.55;10.48;;;;;;;11.15;49.66;94045.94;4991196;28;20030;-72
2022/04/22 00:49:44;;;;;;;11.55;10.30;;;;;;;11.12;50.27;94073.22;4990114;28;20049;-73
2022/04/22 00:52:11;;;;;;;11.88;10.88;;;;;;;10.53;49.81;93978.66;4989592;28;20034;-73
2022/04/22 00:54:36;;;;;;;11.50;10.50;;;;;;;11.12;50.42;94082.00;4991479;28;20483;-72
2022/04/22 00:57:02;;;;;;;11.60;10.57;;;;;;;10.89;49.60;93988.50;4992385;28;20034;-72
2022/04/22 00:59:31;;;;;;;13.07;11.75;;;;;;;11.01;49.51;94026.88;4995100;28;20097;-72
2022/04/22 01:01:56;;;;;;;11.57;10.57;;;;;;;10.67;49.47;93954.41;4994248;28;20026;-71
2022/04/22 01:10:01;;;;;;;12.35;11.07;;;;;;;10.42;50.27;93940.31;4994670;28;20447;-72
2022/04/22 01:12:30;;;;;;;12.20;11.05;;;;;;;10.72;50.53;94014.56;4993500;28;20121;-72
2022/04/22 01:14:56;;;;;;;11.77;10.68;;;;;;;10.98;49.57;94007.03;4995187;28;20034;-74
2022/04/22 01:17:22;;;;;;;11.60;10.65;;;;;;;11.18;50.51;94037.28;4994961;28;20025;-72
2022/04/22 01:19:47;;;;;;;12.30;11.20;;;;;;;10.33;52.26;94016.72;4993712;28;20105;-72
2022/04/22 01:22:13;;;;;;;12.10;11.10;;;;;;;10.71;51.15;94040.41;5008804;23;20026;-64
2022/04/22 01:24:38;;;;;;;12.43;11.30;;;;;;;10.47;51.53;94009.22;5013018;28;20117;-63
2022/04/22 01:27:05;;;;;;;11.25;10.30;;;;;;;10.49;51.88;94007.00;5013861;28;20025;-64
2022/04/22 01:29:32;;;;;;;12.20;11.20;;;;;;;10.59;52.16;94027.84;5013630;28;20029;-64
2022/04/22 01:31:59;;;;;;;11.77;10.80;;;;;;;10.51;51.68;94012.78;5012212;28;20036;-64
2022/04/22 01:34:24;;;;;;;10.98;10.00;;;;;;;10.50;51.78;94029.06;5012438;28;20382;-65
2022/04/22 01:36:49;;;;;;;13.35;12.02;;;;;;;10.72;51.11;94011.91;5013746;28;20105;-64
2022/04/22 01:39:15;;;;;;;12.77;11.48;;;;;;;10.89;50.35;94012.47;5013834;28;20046;-63
2022/04/22 01:41:41;;;;;;;12.30;11.10;;;;;;;10.73;51.02;93989.53;5013050;28;20030;-64
2022/04/22 01:44:06;;;;;;;12.02;10.93;;;;;;;10.87;50.40;93998.72;5012337;28;20080;-64
2022/04/22 01:46:32;;;;;;;13.05;11.85;;;;;;;10.66;51.15;93998.81;5013440;28;20022;-64
2022/04/22 01:48:58;;;;;;;12.45;11.27;;;;;;;10.65;51.29;93989.31;5013584;28;20022;-64
2022/04/22 01:51:24;;;;;;;11.23;10.10;;;;;;;10.49;51.81;93983.06;5012506;28;20022;-64
2022/04/22 01:53:49;;;;;;;12.48;11.25;;;;;;;10.79;51.09;93996.16;5013405;28;20024;-63
2022/04/22 01:56:15;;;;;;;13.05;11.95;;;;;;;10.84;50.93;93988.72;5013449;28;20068;-64
2022/04/22 01:58:41;;;;;;;12.70;11.43;;;;;;;10.38;52.21;93966.78;5013278;28;20021;-63
2022/04/22 02:01:06;;;;;;;11.73;10.73;;;;;;;10.20;51.47;93930.84;5012560;28;20533;-63
2022/04/22 02:03:31;;;;;;;15.27;11.30;;;;;;;10.48;51.72;93972.78;5013277;28;20498;-63
2022/04/22 02:05:58;;;;;;;12.07;10.98;;;;;;;10.38;52.51;93984.59;5013358;28;20026;-63
2022/04/22 02:08:23;;;;;;;12.30;11.10;;;;;;;10.34;52.89;93995.16;5012822;28;20402;-63
2022/04/22 02:10:48;;;;;;;12.95;11.75;;;;;;;10.36;52.90;93969.00;5012062;28;20034;-62
2022/04/22 02:13:14;;;;;;;12.35;11.25;;;;;;;10.59;51.65;93965.91;5010804;28;20105;-63
2022/04/22 02:15:39;;;;;;;13.20;12.02;;;;;;;10.36;52.20;93947.72;5011340;28;20037;-63
2022/04/22 02:18:04;;;;;;;12.35;11.25;;;;;;;10.36;52.35;93969.00;5012967;28;20022;-63
2022/04/22 02:20:31;;;;;;;13.35;11.68;;;;;;;10.33;52.90;93969.66;5010802;28;20026;-63
2022/04/22 02:22:56;;;;;;;12.77;11.68;;;;;;;10.51;52.75;93972.91;5011314;28;20505;-63
2022/04/22 02:25:22;;;;;;;13.18;11.88;;;;;;;10.23;52.89;93951.44;5012812;28;20057;-63
2022/04/22 02:30:31;;;;;;;13.02;11.70;;;;;;;10.60;52.15;93970.13;5011831;28;20032;-64
2022/04/22 02:32:56;;;;;;;12.88;11.75;;;;;;;10.36;53.57;93982.28;5012585;28;20026;-64
2022/04/22 02:35:22;;;;;;;13.35;12.23;;;;;;;10.46;52.25;93945.75;5012767;28;20025;-64
2022/04/22 02:37:48;;;;;;;15.18;12.85;;;;;;;10.59;52.14;93964.00;5012698;28;20030;-64
2022/04/22 02:45:42;;;;;;;13.95;12.77;;;;;;;10.63;51.82;93967.56;4993255;28;20533;-64
2022/04/22 02:48:07;;;;;;;13.63;12.30;;;;;;;10.53;51.90;93936.09;4993278;28;20058;-64
2022/04/22 02:50:32;;;;;;;14.07;12.82;;;;;;;10.73;51.11;93949.63;4992564;28;20463;-64
2022/04/22 02:52:58;;;;;;;14.23;12.77;;;;;;;10.40;51.43;93895.47;5012149;28;20030;-64
2022/04/22 02:55:23;;;;;;;13.50;12.30;;;;;;;10.37;52.63;93965.22;5012350;28;20109;-64
2022/04/22 02:57:49;;;;;;;14.25;12.95;;;;;;;10.43;52.36;93941.09;5012338;28;20022;-64
2022/04/22 03:00:14;;;;;;;14.52;13.32;;;;;;;10.36;52.05;93926.47;5011848;28;20076;-64
2022/04/22 03:02:42;;;;;;;14.48;13.15;;;;;;;10.51;52.48;93964.16;5010904;28;20025;-64
2022/04/22 03:05:09;;;;;;;15.07;13.48;;;;;;;10.36;52.36;93939.75;5011996;28;20033;-64
2022/04/22 03:07:34;;;;;;;14.70;13.45;;;;;;;10.41;52.71;93928.91;5012250;28;20471;-64
2022/04/22 03:10:00;;;;;;;15.82;14.48;;;;;;;10.58;52.56;93951.06;5012246;28;20032;-65
2022/04/22 03:12:25;;;;;;;15.70;14.13;;;;;;;10.22;53.48;93927.88;5011898;28;20030;-63
2022/04/22 03:14:51;;;;;;;21.35;14.30;;;;;;;10.19;52.95;93925.88;5010619;28;20121;-63
2022/04/22 03:17:16;;;;;;;14.25;13.02;;;;;;;10.27;53.66;93940.97;5011753;28;20026;-64
2022/04/22 03:19:42;;;;;;;14.95;13.65;;;;;;;9.83;53.71;93885.63;5011155;28;20033;-64
2022/04/22 03:22:08;;;;;;;15.65;14.23;;;;;;;10.22;53.44;93922.53;5010029;28;20551;-64
2022/04/22 03:24:33;;;;;;;17.25;14.45;;;;;;;10.30;52.78;93921.72;5011900;28;20029;-64
2022/04/22 03:26:59;;;;;;;15.27;13.80;;;;;;;10.24;53.57;93910.53;5011806;28;20041;-64
2022/04/22 03:29:24;;;;;;;16.23;14.70;;;;;;;10.29;52.92;93898.91;5011537;28;20112;-64
2022/04/22 03:31:50;;;;;;;17.00;15.38;;;;;;;10.19;53.09;93894.75;5011175;28;20033;-64
2022/04/22 03:34:15;;;;;;;15.45;13.98;;;;;;;10.20;53.01;93912.25;5011723;28;20017;-64
2022/04/22 03:36:40;;;;;;;16.80;14.98;;;;;;;10.23;53.17;93903.59;5010302;28;20489;-64
2022/04/22 03:39:07;;;;;;;15.68;14.07;;;;;;;10.32;53.05;93912.28;5010445;28;20506;-64
2022/04/22 03:41:33;;;;;;;16.60;15.00;;;;;;;10.27;53.64;93925.78;5010621;28;20478;-63
2022/04/22 03:43:59;;;;;;;16.50;14.77;;;;;;;10.33;53.10;93900.53;5011542;28;20115;-63
2022/04/22 03:46:25;;;;;;;17.02;15.32;;;;;;;10.17;52.92;93889.00;5011455;28;20156;-64
2022/04/22 03:48:50;;;;;;;17.45;15.82;;;;;;;10.13;53.71;93888.09;5011507;28;20061;-63
2022/04/22 03:51:15;;;;;;;27.38;16.40;;;;;;;10.23;53.27;93910.81;5010937;28;20029;-64
2022/04/22 03:53:41;;;;;;;18.10;16.27;;;;;;;9.67;55.45;93892.66;5009747;28;20029;-63
2022/04/22 03:58:50;;;;;;;16.23;14.52;;;;;;;9.41;55.83;93894.78;5011510;28;20041;-63
2022/04/22 04:01:15;;;;;;;19.05;17.13;;;;;;;9.93;54.79;93889.75;5010957;28;20034;-64
2022/04/22 04:03:41;;;;;;;18.27;16.58;;;;;;;10.02;54.64;93884.31;5010053;28;20054;-63
2022/04/22 04:06:07;;;;;;;18.08;16.23;;;;;;;10.01;54.37;93882.78;5011097;28;20377;-63
2022/04/22 04:08:33;;;;;;;19.73;16.17;;;;;;;10.15;53.84;93894.66;5009869;28;20030;-63
2022/04/22 04:16:20;;;;;;;17.70;15.98;;;;;;;10.00;55.24;93903.25;5011634;28;20497;-63
2022/04/22 04:18:45;;;;;;;18.50;16.50;;;;;;;10.06;54.52;93890.53;5011300;28;20103;-62
2022/04/22 04:23:56;;;;;;;19.50;17.52;;;;;;;9.71;55.40;93871.53;5011053;28;20616;-63
2022/04/22 04:26:26;;;;;;;18.58;16.77;;;;;;;9.79;55.22;93876.00;5009807;28;20109;-64
2022/04/22 04:28:53;;;;;;;19.95;17.83;;;;;;;10.18;54.15;93895.84;5011034;28;20502;-63
2022/04/22 04:31:20;;;;;;;18.90;17.10;;;;;;;10.14;54.35;93884.34;5013416;28;20032;-63
2022/04/22 04:33:46;;;;;;;18.38;16.48;;;;;;;10.21;53.98;93884.56;5013643;28;20490;-62
2022/04/22 04:36:12;;;;;;;17.27;15.77;;;;;;;10.56;53.20;93908.09;5014871;28;20053;-64
2022/04/22 04:38:39;;;;;;;17.65;15.95;;;;;;;10.63;53.11;93898.44;5014812;28;20433;-64
2022/04/22 04:41:07;;;;;;;17.40;15.73;;;;;;;10.72;52.65;93902.88;5014031;28;20038;-64
2022/04/22 04:43:33;;;;;;;17.73;16.05;;;;;;;10.94;51.97;93911.13;5011827;28;20053;-63
2022/04/22 04:45:59;;;;;;;16.30;14.90;;;;;;;11.07;51.68;93901.25;5012813;28;20076;-64
2022/04/22 04:48:24;;;;;;;17.67;15.98;;;;;;;11.14;51.71;93901.44;5012192;28;20030;-64
2022/04/22 04:50:54;;;;;;;16.98;14.90;;;;;;;11.26;50.95;93895.34;5013108;28;20034;-63
2022/04/22 04:53:20;;;;;;;16.70;15.13;;;;;;;11.48;50.80;93902.00;5014891;28;20371;-63
2022/04/22 04:55:47;;;;;;;18.00;16.23;;;;;;;11.65;50.78;93907.03;5014277;28;20032;-64
2022/04/22 04:58:12;;;;;;;15.93;14.38;;;;;;;11.57;50.05;93875.25;5014045;28;20030;-63
2022/04/22 05:00:38;;;;;;;16.02;14.40;;;;;;;11.73;49.71;93901.91;5014429;28;20420;-63
2022/04/22 05:03:04;;;;;;;19.95;14.70;;;;;;;11.38;49.78;93838.59;5014696;28;20030;-62
2022/04/22 05:05:30;;;;;;;15.75;14.35;;;;;;;11.71;49.28;93868.38;5013700;28;20049;-63
2022/04/22 05:07:57;;;;;;;15.77;14.20;;;;;;;12.13;49.60;93905.25;5014432;28;20105;-66
2022/04/22 05:10:27;;;;;;;18.20;14.23;;;;;;;12.37;49.02;93914.19;5013672;28;20024;-65
2022/04/22 05:12:53;;;;;;;15.90;14.48;;;;;;;12.31;48.21;93884.34;5014364;28;20422;-65
2022/04/22 05:15:22;;;;;;;15.85;14.32;;;;;;;12.49;48.48;93906.13;5012781;28;20034;-64
2022/04/22 05:17:48;;;;;;;16.27;14.63;;;;;;;12.61;47.99;93919.34;5013890;28;20623;-66
2022/04/22 05:20:16;;;;;;;15.10;13.55;;;;;;;12.63;47.96;93911.00;5013136;28;20806;-65
2022/04/22 05:22:42;;;;;;;17.00;15.20;;;;;;;12.13;48.21;93896.47;5013835;28;20037;-65
2022/04/22 05:25:10;;;;;;;15.68;14.07;;;;;;;11.64;48.03;93792.84;5014363;28;20080;-66
2022/04/22 05:27:36;;;;;;;15.00;13.32;;;;;;;12.67;47.62;93903.84;5014032;28;20117;-65
2022/04/22 05:32:48;;;;;;;17.27;14.43;;;;;;;12.68;47.53;93900.06;4996343;28;20057;-66
2022/04/22 05:35:15;;;;;;;16.33;14.93;;;;;;;12.71;47.17;93902.03;5014038;28;20390;-66
2022/04/22 05:38:17;;;;;;;15.43;14.13;;;;;;;12.71;47.39;93894.03;5012936;28;20017;-65
2022/04/22 05:40:48;;;;;;;15.20;13.85;;;;;;;12.36;47.93;93881.41;4991393;28;20027;-63
2022/04/22 05:43:13;;;;;;;16.77;14.18;;;;;;;12.57;46.89;93872.38;4990986;28;20125;-63
2022/04/22 05:45:39;;;;;;;16.17;14.63;;;;;;;12.13;47.77;93902.59;4994299;28;20109;-65
2022/04/22 05:48:05;;;;;;;14.73;13.50;;;;;;;11.29;49.88;93869.91;4994174;28;20025;-65
2022/04/22 05:50:30;;;;;;;16.63;15.02;;;;;;;11.58;49.25;93882.09;5002583;28;20033;-64
2022/04/22 05:52:56;;;;;;;15.60;14.20;;;;;;;11.68;49.56;93885.06;5013453;28;20025;-65
2022/04/22 05:55:27;;;;;;;19.17;14.77;;;;;;;11.57;49.06;93859.25;5013898;28;20060;-64
2022/04/22 05:57:53;;;;;;;14.45;12.98;;;;;;;12.54;47.97;93897.06;5012548;28;20072;-66
2022/04/22 06:00:23;;;;;;;15.35;13.95;;;;;;;12.45;47.26;93899.91;5011854;28;20044;-66
2022/04/22 06:02:48;;;;;;;15.25;13.75;;;;;;;12.82;46.90;93899.59;5012053;28;20033;-65
2022/04/22 06:05:16;;;;;;;14.20;13.00;;;;;;;11.87;47.31;93812.47;5011573;28;20080;-65
2022/04/22 06:07:42;;;;;;;15.60;14.00;;;;;;;12.43;47.04;93881.56;5028577;28;20026;-65
2022/04/22 06:12:54;;;;;;;14.98;13.55;;;;;;;12.15;47.49;93832.94;5013138;28;20048;-66
2022/04/22 06:15:21;;;;;;;14.63;13.38;;;;;;;12.68;46.98;93881.38;5011764;28;20030;-65
2022/04/22 06:17:47;;;;;;;14.68;13.48;;;;;;;12.95;46.44;93890.38;5013156;28;20537;-65
2022/04/22 06:20:12;;;;;;;14.45;13.02;;;;;;;12.73;46.10;93868.53;5012092;28;20030;-65
2022/04/22 06:22:38;;;;;;;14.45;12.45;;;;;;;13.18;45.50;93872.53;5012727;28;20367;-65
2022/04/22 06:25:05;;;;;;;13.88;12.52;;;;;;;13.42;45.06;93874.19;5012963;28;20095;-65
2022/04/22 06:27:34;;;;;;;16.40;12.88;;;;;;;13.52;45.11;93878.22;5013004;28;20105;-65
2022/04/22 06:30:21;;;;;;;14.40;13.20;;;;;;;13.68;44.40;93880.78;4993209;28;20034;-65
2022/04/22 06:32:51;;;;;;;13.95;12.50;;;;;;;13.40;45.04;93889.00;5006843;28;20033;-66
2022/04/22 06:35:21;;;;;;;13.05;11.80;;;;;;;13.38;44.34;93849.31;5011356;28;20032;-66
2022/04/22 06:37:49;;;;;;;13.77;12.50;;;;;;;13.87;45.80;93886.13;5012624;28;20026;-67
2022/04/22 06:45:46;;;;;;;13.55;12.35;;;;;;;14.53;43.10;93886.81;5012848;28;20056;-66
2022/04/22 06:48:34;;;;;;;13.50;12.27;;;;;;;14.64;42.54;93892.34;5012576;28;20031;-67
2022/04/22 06:51:00;;;;;;;13.05;11.85;;;;;;;14.87;42.00;93895.00;5011076;28;20030;-63
2022/04/22 06:53:27;;;;;;;13.48;12.27;;;;;;;14.59;41.92;93872.03;5010944;28;20022;-64
2022/04/22 06:55:54;;;;;;;12.65;11.65;;;;;;;14.75;41.17;93853.91;5012448;28;20030;-64
2022/04/22 06:58:20;;;;;;;13.00;11.82;;;;;;;14.67;41.58;93881.69;5026860;28;20141;-65
2022/04/22 07:00:47;;;;;;;12.50;11.40;;;;;;;14.17;42.31;93875.53;5011764;28;20042;-66
2022/04/22 07:03:14;;;;;;;13.27;12.20;;;;;;;14.70;42.45;93870.28;5012267;28;20034;-65
2022/04/22 07:05:41;;;;;;;12.55;11.15;;;;;;;15.01;41.68;93865.75;5011500;28;20034;-63
2022/04/22 07:08:13;;;;;;;12.82;11.82;;;;;;;14.55;42.30;93881.91;5012283;28;20026;-65
2022/04/22 07:10:39;;;;;;;12.43;11.43;;;;;;;14.35;42.27;93851.00;5010551;28;20025;-63
2022/04/22 07:13:05;;;;;;;12.70;11.60;;;;;;;14.35;42.60;93878.50;5011937;28;20430;-65
2022/04/22 07:15:31;;;;;;;12.55;11.48;;;;;;;14.13;42.43;93866.69;5011003;28;20478;-63
2022/04/22 07:17:56;;;;;;;12.52;11.35;;;;;;;14.13;42.87;93873.94;5012047;28;20382;-65
2022/04/22 07:20:23;;;;;;;13.13;12.02;;;;;;;14.65;42.10;93843.81;5009666;28;20049;-65
2022/04/22 07:22:49;;;;;;;11.68;10.77;;;;;;;15.15;41.33;93854.41;5026736;28;20406;-63
2022/04/22 07:25:16;;;;;;;13.10;12.00;;;;;;;15.20;40.76;93852.22;5011741;28;20032;-64
2022/04/22 07:27:44;;;;;;;12.15;11.05;;;;;;;15.08;40.87;93828.31;5011709;28;20018;-61
2022/04/22 07:30:12;;;;;;;12.65;11.18;;;;;;;15.32;40.91;93856.56;5010019;28;20109;-63
2022/04/22 07:32:38;;;;;;;13.05;11.48;;;;;;;15.06;40.72;93844.00;5011668;28;20045;-64
2022/04/22 07:35:11;;;;;;;11.68;10.52;;;;;;;15.68;39.63;93835.53;5011455;28;20033;-64
2022/04/22 07:37:40;;;;;;;12.05;11.07;;;;;;;15.43;39.90;93789.69;5012295;28;20126;-68
2022/04/22 07:40:06;;;;;;;12.02;10.82;;;;;;;15.67;39.09;93815.25;5011827;28;20037;-65
2022/04/22 07:42:34;;;;;;;12.10;10.95;;;;;;;15.49;39.89;93810.44;5011575;28;20036;-64
2022/04/22 07:47:47;;;;;;;16.60;11.52;;;;;;;15.76;39.55;93819.16;5011692;28;20489;-65
2022/04/22 07:50:17;;;;;;;12.55;11.23;;;;;;;16.40;39.03;93845.78;5009468;28;20026;-66
2022/04/22 07:52:44;;;;;;;11.43;10.52;;;;;;;16.29;39.26;93851.06;5011596;28;20059;-65
2022/04/22 07:55:11;;;;;;;12.02;11.00;;;;;;;16.25;38.44;93819.97;5011161;28;20474;-65
2022/04/22 07:57:36;;;;;;;12.68;11.40;;;;;;;16.54;38.66;93829.78;5010074;28;20037;-63
2022/04/22 08:00:03;;;;;;;11.88;10.40;;;;;;;16.83;37.96;93821.91;5010086;28;20022;-62
2022/04/22 08:02:29;;;;;;;12.23;10.85;;;;;;;16.80;38.07;93834.19;5011180;28;20156;-65
2022/04/22 08:04:54;;;;;;;12.18;10.90;;;;;;;16.61;37.79;93823.69;5009989;28;20045;-66
2022/04/22 08:07:20;;;;;;;12.70;11.50;;;;;;;16.55;38.48;93830.53;5009889;28;20060;-63
2022/04/22 08:09:45;;;;;;;14.05;11.50;;;;;;;16.67;38.07;93846.34;5012122;28;20034;-63
2022/04/22 08:12:12;;;;;;;11.80;10.60;;;;;;;16.68;38.26;93834.44;5009710;28;20029;-64
2022/04/22 08:14:38;;;;;;;11.70;10.70;;;;;;;16.97;37.75;93829.28;5011132;28;20033;-63
2022/04/22 08:17:04;;;;;;;11.80;10.73;;;;;;;16.59;38.00;93844.78;5010780;28;20391;-63
2022/04/22 08:19:29;;;;;;;11.13;10.10;;;;;;;16.71;37.78;93831.06;5009348;28;20030;-62
2022/04/22 08:21:54;;;;;;;11.75;10.75;;;;;;;16.94;37.45;93833.50;5009557;28;20153;-63
2022/04/22 08:24:20;;;;;;;11.18;10.23;;;;;;;17.19;36.70;93819.41;5011132;28;20397;-63
2022/04/22 08:26:46;;;;;;;11.73;10.73;;;;;;;17.53;36.52;93842.19;5009622;28;20050;-63
2022/04/22 08:29:11;;;;;;;11.00;9.75;;;;;;;17.30;36.13;93823.69;5011016;28;20032;-63
2022/04/22 08:31:37;;;;;;;11.82;10.93;;;;;;;17.54;36.17;93826.84;5009656;28;20038;-63
2022/04/22 08:34:02;;;;;;;11.30;10.30;;;;;;;17.07;36.53;93825.88;5009265;28;20117;-63
2022/04/22 08:36:29;;;;;;;10.60;9.63;;;;;;;17.81;35.76;93860.38;5008950;28;20067;-63
2022/04/22 08:38:56;;;;;;;13.85;10.75;;;;;;;18.05;36.08;93858.88;5010189;28;20509;-63
2022/04/22 08:41:22;;;;;;;11.07;10.27;;;;;;;17.45;35.71;93811.06;5009625;28;20072;-63
2022/04/22 08:43:51;;;;;;;11.35;10.30;;;;;;;17.37;36.91;93847.13;5009910;28;20033;-64
2022/04/22 08:51:45;;;;;;;12.50;10.32;;;;;;;17.70;36.73;93832.63;5009793;28;20056;-63
2022/04/22 08:54:13;;;;;;;10.95;9.88;;;;;;;17.56;36.48;93832.63;5011032;28;20096;-62
2022/04/22 08:56:39;;;;;;;11.23;10.32;;;;;;;17.70;36.77;93848.00;5009764;28;20065;-62
2022/04/22 08:59:05;;;;;;;10.93;10.02;;;;;;;18.05;35.93;93826.59;5009278;28;20410;-61
2022/04/22 09:01:31;;;;;;;9.90;9.10;;;;;;;17.54;36.06;93814.16;5010185;28;20458;-62
2022/04/22 09:03:56;;;;;;;9.68;8.90;;;;;;;18.51;35.15;93844.69;5010632;28;20169;-61
2022/04/22 09:06:25;;;;;;;10.75;10.02;;;;;;;17.74;35.40;93848.81;5010165;28;20026;-62
2022/04/22 09:08:51;;;;;;;10.45;9.65;;;;;;;18.28;35.19;93838.91;5010855;28;20119;-62
2022/04/22 09:11:17;;;;;;;9.75;9.05;;;;;;;18.80;34.37;93840.06;5010273;28;20731;-61
2022/04/22 09:13:42;;;;;;;12.75;9.93;;;;;;;18.65;33.79;93833.91;5010670;28;20105;-63
2022/04/22 09:16:17;;;;;;;11.70;10.07;;;;;;;19.27;33.54;93837.25;5009571;28;20033;-64
2022/04/22 09:18:43;;;;;;;10.25;9.55;;;;;;;18.12;34.28;93815.84;5012980;28;20044;-64
2022/04/22 09:21:18;;;;;;;9.60;8.73;;;;;;;18.00;35.14;93816.19;5012680;28;20469;-64
2022/04/22 09:23:47;;;;;;;10.00;9.10;;;;;;;18.94;34.18;93823.13;5012802;28;20034;-64
2022/04/22 09:26:24;;;;;;;11.07;9.40;;;;;;;19.28;33.37;93828.00;5014044;28;20030;-62
2022/04/22 09:29:05;;;;;;;10.10;9.20;;;;;;;18.61;34.50;93835.06;5010049;28;20021;-63
2022/04/22 09:31:47;;;;;;;9.65;8.90;;;;;;;18.67;34.32;93820.81;5011936;28;20496;-63
2022/04/22 09:34:13;;;;;;;9.90;9.18;;;;;;;19.09;34.05;93848.88;5012613;28;20038;-62
2022/04/22 09:45:06;;;;;;;9.90;9.07;;;;;;;19.60;32.50;93825.19;5013097;28;20398;-62
2022/04/22 09:47:33;;;;;;;10.73;9.80;;;;;;;18.95;33.31;93832.72;5013902;28;20109;-62
2022/04/22 09:50:14;;;;;;;10.10;9.18;;;;;;;18.70;33.92;93830.84;5011443;28;20022;-63
2022/04/22 09:52:46;;;;;;;9.70;8.88;;;;;;;19.45;32.77;93825.25;5011993;28;20072;-64
2022/04/22 09:55:16;;;;;;;9.55;8.75;;;;;;;19.63;32.89;93816.31;5011626;28;20484;-64
2022/04/22 09:57:58;;;;;;;9.18;8.38;;;;;;;18.39;34.29;93828.91;5013440;28;20367;-64
2022/04/22 10:00:31;;;;;;;9.73;8.82;;;;;;;19.47;32.88;93819.47;5011828;28;20029;-64
2022/04/22 10:02:57;;;;;;;9.90;9.05;;;;;;;19.24;33.07;93825.31;5012219;28;20022;-64
2022/04/22 10:05:24;;;;;;;12.82;9.95;;;;;;;18.55;34.05;93813.13;5011935;28;20149;-65
2022/04/22 10:07:57;;;;;;;10.77;9.90;;;;;;;18.65;33.81;93822.34;5012541;28;20022;-64
2022/04/22 10:10:43;;;;;;;11.05;10.05;;;;;;;19.21;33.42;93818.78;5012706;28;20026;-64
2022/04/22 10:13:15;;;;;;;9.80;8.90;;;;;;;19.25;32.89;93829.56;5011240;28;20498;-65
2022/04/22 10:15:42;;;;;;;10.27;9.27;;;;;;;18.26;34.23;93798.16;5013123;28;20034;-64
2022/04/22 10:18:08;;;;;;;10.50;9.50;;;;;;;18.40;34.38;93793.53;5011321;28;20030;-62
2022/04/22 10:20:35;;;;;;;10.68;9.60;;;;;;;17.36;36.41;93832.16;5011493;28;20018;-64
2022/04/22 10:23:02;;;;;;;11.30;10.27;;;;;;;16.68;38.34;93812.97;5010624;28;20037;-65
2022/04/22 10:25:32;;;;;;;11.10;10.20;;;;;;;17.83;35.88;93808.88;5013112;28;20065;-63
2022/04/22 10:28:03;;;;;;;39.95;17.10;;;;;;;17.78;37.48;93793.13;5012829;28;20418;-66
2022/04/22 10:30:29;;;;;;;14.57;11.70;;;;;;;18.39;39.92;93818.91;5010744;28;20728;-69
2022/04/22 10:32:56;;;;;;;13.05;11.93;;;;;;;18.27;41.94;93821.22;5011799;28;20057;-67
2022/04/22 10:35:23;;;;;;;11.98;11.05;;;;;;;18.39;38.65;93812.78;5011536;28;20018;-64
2022/04/22 10:37:49;;;;;;;10.95;9.90;;;;;;;18.30;34.83;93793.53;5011937;28;20033;-65
2022/04/22 10:40:23;;;;;;;11.70;10.57;;;;;;;17.43;36.17;93794.53;5012074;28;20038;-65
2022/04/22 10:42:50;;;;;;;11.63;10.75;;;;;;;17.12;36.17;93715.38;5009173;28;20622;-64
2022/04/22 10:48:18;;;;;;;10.57;9.70;;;;;;;17.12;37.30;93799.44;4993370;28;20036;-64
2022/04/22 10:50:58;;;;;;;10.80;9.88;;;;;;;17.09;37.14;93808.22;4997204;28;20041;-66
2022/04/22 10:53:29;;;;;;;11.45;10.57;;;;;;;16.76;37.00;93744.00;5010108;28;20088;-65
2022/04/22 10:56:30;;;;;;;12.67;9.80;;;;;;;16.31;38.85;93819.25;5011646;28;20072;-65
2022/04/22 10:59:20;;;;;;;11.07;9.98;;;;;;;17.29;41.80;93837.50;5011613;28;20338;-66
2022/04/22 11:01:47;;;;;;;10.30;9.50;;;;;;;17.68;39.58;93827.66;5009419;28;20030;-67
2022/04/22 11:04:24;;;;;;;10.98;10.15;;;;;;;16.84;37.96;93829.63;5012347;28;20025;-64
2022/04/22 11:06:50;;;;;;;10.80;9.95;;;;;;;17.45;36.72;93821.81;5011090;28;20611;-64
2022/04/22 11:09:31;;;;;;;10.90;9.90;;;;;;;17.84;36.55;93824.63;5009797;28;20034;-65
2022/04/22 11:11:59;;;;;;;9.90;9.10;;;;;;;18.49;35.15;93809.31;5011452;28;20026;-63
2022/04/22 11:14:26;;;;;;;9.65;8.95;;;;;;;18.95;35.34;93813.88;5026723;28;20053;-62
2022/04/22 11:17:15;;;;;;;10.63;9.70;;;;;;;19.40;33.99;93806.03;5010320;28;20471;-63
2022/04/22 11:19:57;;;;;;;9.75;8.95;;;;;;;19.63;37.04;93809.00;5010094;28;20156;-65
2022/04/22 11:22:58;;;;;;;10.70;9.93;;;;;;;20.18;33.96;93812.91;5010488;28;20042;-65
2022/04/22 11:25:29;;;;;;;10.85;9.88;;;;;;;19.49;35.30;93822.53;5012174;28;20112;-64
2022/04/22 11:27:55;;;;;;;11.60;10.70;;;;;;;19.78;33.13;93817.03;5011928;28;20026;-64
2022/04/22 11:30:22;;;;;;;11.40;10.50;;;;;;;18.72;34.46;93775.81;5006621;28;20030;-65
2022/04/22 11:32:52;;;;;;;11.23;10.18;;;;;;;17.14;38.38;93828.59;5002548;28;20025;-65
2022/04/22 11:35:22;;;;;;;9.80;8.48;;;;;;;18.34;38.51;93819.31;5011996;28;20036;-65
2022/04/22 11:38:01;;;;;;;10.45;9.63;;;;;;;19.35;36.32;93836.09;5010892;28;20022;-65
2022/04/22 11:40:27;;;;;;;10.45;9.68;;;;;;;19.67;34.48;93828.63;5010830;28;20025;-67
2022/04/22 11:42:54;;;;;;;11.57;10.57;;;;;;;19.68;33.71;93808.59;5011169;28;20052;-67
2022/04/22 11:45:20;;;;;;;9.70;9.00;;;;;;;20.33;32.82;93832.47;5010503;28;20548;-67
2022/04/22 11:47:46;;;;;;;10.40;9.70;;;;;;;20.12;32.53;93809.09;5011660;28;20030;-67
2022/04/22 11:50:20;;;;;;;10.77;9.70;;;;;;;20.11;32.88;93792.09;5011027;28;20048;-67
2022/04/22 11:52:52;;;;;;;12.45;10.00;;;;;;;20.47;32.40;93818.88;5010980;28;20033;-66
2022/04/22 11:55:17;;;;;;;;;;;;;;;20.66;31.31;93823.72;5012201;28;20030;-64
2022/04/22 11:57:42;;;;;;;9.73;9.02;;;;;;;20.02;32.36;93816.09;5011528;28;20274;-65
2022/04/22 12:05:41;;;;;;;11.23;10.38;;;;;;;20.85;31.11;93784.56;5011382;28;20036;-64
2022/04/22 12:08:10;;;;;;;10.68;9.68;;;;;;;20.97;31.19;93819.19;5010701;28;20084;-65
2022/04/22 12:10:37;;;;;;;11.75;10.75;;;;;;;20.85;31.20;93811.59;5010889;28;20100;-65
2022/04/22 12:13:04;;;;;;;11.43;10.40;;;;;;;20.35;32.32;93805.81;5011333;28;20072;-63
2022/04/22 12:15:30;;;;;;;11.50;8.98;;;;;;;21.28;31.24;93797.59;5011351;28;20022;-63
2022/04/22 12:17:57;;;;;;;11.30;10.38;;;;;;;21.00;31.12;93814.91;5011256;28;20105;-65
2022/04/22 12:20:25;;;;;;;11.50;10.55;;;;;;;20.89;31.09;93809.63;5009444;28;20022;-65
2022/04/22 12:22:52;;;;;;;11.93;10.55;;;;;;;21.01;31.03;93813.75;5011142;28;20032;-65